sensor_id;sensor_type;location;lat;lon;timestamp;pressure;altitude;pressure_sealevel;temperature;humidity
69411;BME280;56604;48.652;9.194;2022-12-05T00:00:58;96040.03;;;1.72;89.52
69411;BME280;56604;48.652;9.194;2022-12-05T00:03:27;96049.41;;;1.73;89.71
69411;BME280;56604;48.652;9.194;2022-12-05T00:05:52;96056.16;;;1.61;89.93
69411;BME280;56604;48.652;9.194;2022-12-05T00:08:17;96051.81;;;1.68;90.74
69411;BME280;56604;48.652;9.194;2022-12-05T00:10:43;96046.63;;;1.75;89.85
69411;BME280;56604;48.652;9.194;2022-12-05T00:13:09;96048.63;;;1.79;90.14
69411;BME280;56604;48.652;9.194;2022-12-05T00:15:39;96047.00;;;1.78;90.17
69411;BME280;56604;48.652;9.194;2022-12-05T00:18:04;96051.81;;;1.75;90.00
69411;BME280;56604;48.652;9.194;2022-12-05T00:20:30;96048.41;;;1.74;89.77
69411;BME280;56604;48.652;9.194;2022-12-05T00:22:56;96047.03;;;1.65;90.62
69411;BME280;56604;48.652;9.194;2022-12-05T00:25:21;96047.03;;;1.65;90.93
69411;BME280;56604;48.652;9.194;2022-12-05T00:27:46;96051.78;;;1.62;91.03
69411;BME280;56604;48.652;9.194;2022-12-05T00:30:12;96045.84;;;1.74;90.87
69411;BME280;56604;48.652;9.194;2022-12-05T00:32:37;96051.81;;;1.68;90.83
69411;BME280;56604;48.652;9.194;2022-12-05T00:35:03;96058.97;;;1.73;90.77
69411;BME280;56604;48.652;9.194;2022-12-05T00:37:28;96069.72;;;1.70;91.03
69411;BME280;56604;48.652;9.194;2022-12-05T00:39:53;96059.38;;;1.70;91.09
69411;BME280;56604;48.652;9.194;2022-12-05T00:42:19;96058.78;;;1.74;91.19
69411;BME280;56604;48.652;9.194;2022-12-05T00:44:44;96064.53;;;1.76;91.14
69411;BME280;56604;48.652;9.194;2022-12-05T00:47:09;96056.19;;;1.74;90.98
69411;BME280;56604;48.652;9.194;2022-12-05T00:49:35;96057.78;;;1.69;91.24
69411;BME280;56604;48.652;9.194;2022-12-05T00:52:00;96064.94;;;1.73;91.35
69411;BME280;56604;48.652;9.194;2022-12-05T00:54:26;96070.13;;;1.67;91.05
69411;BME280;56604;48.652;9.194;2022-12-05T00:56:51;96084.44;;;1.56;92.20
69411;BME280;56604;48.652;9.194;2022-12-05T00:59:20;96085.44;;;1.62;92.19
69411;BME280;56604;48.652;9.194;2022-12-05T01:01:47;96106.78;;;1.70;91.81
69411;BME280;56604;48.652;9.194;2022-12-05T01:04:17;96101.22;;;1.60;92.12
69411;BME280;56604;48.652;9.194;2022-12-05T01:06:43;96104.16;;;1.50;92.51
69411;BME280;56604;48.652;9.194;2022-12-05T01:09:12;96117.53;;;1.61;92.74
69411;BME280;56604;48.652;9.194;2022-12-05T01:11:38;96110.16;;;1.51;92.45
69411;BME280;56604;48.652;9.194;2022-12-05T01:14:04;96113.38;;;1.60;92.50
69411;BME280;56604;48.652;9.194;2022-12-05T01:16:32;96113.16;;;1.54;92.45
69411;BME280;56604;48.652;9.194;2022-12-05T01:19:00;96113.09;;;1.41;93.56
69411;BME280;56604;48.652;9.194;2022-12-05T01:21:26;96122.69;;;1.47;93.03
69411;BME280;56604;48.652;9.194;2022-12-05T01:23:52;96124.31;;;1.55;94.02
69411;BME280;56604;48.652;9.194;2022-12-05T01:26:20;96106.91;;;1.35;94.27
69411;BME280;56604;48.652;9.194;2022-12-05T01:28:46;96104.38;;;1.49;94.68
69411;BME280;56604;48.652;9.194;2022-12-05T01:33:43;96114.66;;;1.35;95.42
69411;BME280;56604;48.652;9.194;2022-12-05T01:36:11;96124.63;;;1.39;96.03
69411;BME280;56604;48.652;9.194;2022-12-05T01:38:40;96125.81;;;1.29;96.69
69411;BME280;56604;48.652;9.194;2022-12-05T01:41:09;96136.16;;;1.29;97.09
69411;BME280;56604;48.652;9.194;2022-12-05T01:43:56;96132.19;;;1.33;97.25
69411;BME280;56604;48.652;9.194;2022-12-05T01:46:23;96127.41;;;1.30;97.94
69411;BME280;56604;48.652;9.194;2022-12-05T01:48:51;96137.81;;;1.37;97.90
69411;BME280;56604;48.652;9.194;2022-12-05T01:51:17;96129.78;;;1.25;97.73
69411;BME280;56604;48.652;9.194;2022-12-05T01:53:43;96122.03;;;1.25;97.83
69411;BME280;56604;48.652;9.194;2022-12-05T01:56:09;96125.81;;;1.29;97.99
69411;BME280;56604;48.652;9.194;2022-12-05T01:58:37;96132.16;;;1.27;98.22
69411;BME280;56604;48.652;9.194;2022-12-05T02:01:04;96120.25;;;1.32;98.41
69411;BME280;56604;48.652;9.194;2022-12-05T02:03:29;96127.41;;;1.30;98.53
69411;BME280;56604;48.652;9.194;2022-12-05T02:05:56;96130.75;;;1.24;98.25
69411;BME280;56604;48.652;9.194;2022-12-05T02:08:23;96145.31;;;1.25;98.78
69411;BME280;56604;48.652;9.194;2022-12-05T02:10:51;96143.78;;;1.38;98.63
69411;BME280;56604;48.652;9.194;2022-12-05T02:16:17;96142.72;;;1.25;98.41
69411;BME280;56604;48.652;9.194;2022-12-05T02:34:57;96169.53;;;1.52;98.66
69411;BME280;56604;48.652;9.194;2022-12-05T02:37:31;96186.78;;;1.39;98.17
69411;BME280;56604;48.652;9.194;2022-12-05T02:40:10;96184.03;;;1.40;98.31
69411;BME280;56604;48.652;9.194;2022-12-05T02:45:09;96169.34;;;1.54;98.38
69411;BME280;56604;48.652;9.194;2022-12-05T02:47:39;96179.34;;;1.64;97.90
69411;BME280;56604;48.652;9.194;2022-12-05T02:50:09;96174.94;;;1.64;97.43
69411;BME280;56604;48.652;9.194;2022-12-05T02:52:36;96163.22;;;1.75;97.54
69411;BME280;56604;48.652;9.194;2022-12-05T02:55:02;96156.25;;;1.82;96.82
69411;BME280;56604;48.652;9.194;2022-12-05T02:57:28;96155.06;;;1.85;96.78
69411;BME280;56604;48.652;9.194;2022-12-05T02:59:54;96161.25;;;1.84;96.49
69411;BME280;56604;48.652;9.194;2022-12-05T03:02:30;96158.47;;;1.85;96.27
69411;BME280;56604;48.652;9.194;2022-12-05T03:07:59;96150.88;;;1.84;95.81
69411;BME280;56604;48.652;9.194;2022-12-05T03:10:29;96158.66;;;1.90;96.10
69411;BME280;56604;48.652;9.194;2022-12-05T03:12:59;96160.69;;;1.95;96.03
69411;BME280;56604;48.652;9.194;2022-12-05T03:15:31;96169.47;;;1.94;95.39
69411;BME280;56604;48.652;9.194;2022-12-05T03:18:12;96164.28;;;1.94;95.56
69411;BME280;56604;48.652;9.194;2022-12-05T03:20:46;96174.22;;;1.84;95.55
69411;BME280;56604;48.652;9.194;2022-12-05T03:23:29;96167.06;;;1.86;96.28
69411;BME280;56604;48.652;9.194;2022-12-05T03:26:10;96168.63;;;1.87;95.53
69411;BME280;56604;48.652;9.194;2022-12-05T03:29:26;96164.69;;;1.97;96.18
69411;BME280;56604;48.652;9.194;2022-12-05T03:40:28;96155.44;;;1.75;95.97
69411;BME280;56604;48.652;9.194;2022-12-05T03:43:10;96164.41;;;1.79;96.12
69411;BME280;56604;48.652;9.194;2022-12-05T03:45:55;96162.66;;;1.79;96.00
69411;BME280;56604;48.652;9.194;2022-12-05T03:50:58;96162.59;;;1.60;96.33
69411;BME280;56604;48.652;9.194;2022-12-05T03:53:48;96153.81;;;1.61;96.14
69411;BME280;56604;48.652;9.194;2022-12-05T03:56:24;96155.34;;;1.42;96.61
69411;BME280;56604;48.652;9.194;2022-12-05T03:59:04;96155.78;;;1.52;97.16
69411;BME280;56604;48.652;9.194;2022-12-05T04:01:33;96153.81;;;1.54;96.87
69411;BME280;56604;48.652;9.194;2022-12-05T04:04:07;96156.97;;;1.56;96.76
69411;BME280;56604;48.652;9.194;2022-12-05T04:06:37;96142.44;;;1.55;96.22
69411;BME280;56604;48.652;9.194;2022-12-05T04:09:08;96144.00;;;1.43;96.58
69411;BME280;56604;48.652;9.194;2022-12-05T04:11:39;96145.75;;;1.42;96.73
69411;BME280;56604;48.652;9.194;2022-12-05T04:14:13;96157.34;;;1.40;97.13
69411;BME280;56604;48.652;9.194;2022-12-05T04:16:52;96150.94;;;1.35;97.71
69411;BME280;56604;48.652;9.194;2022-12-05T04:20:03;96158.16;;;1.47;97.52
69411;BME280;56604;48.652;9.194;2022-12-05T04:22:45;96166.53;;;1.49;97.72
69411;BME280;56604;48.652;9.194;2022-12-05T04:25:13;96168.13;;;1.50;97.72
69411;BME280;56604;48.652;9.194;2022-12-05T04:28:26;96170.47;;;1.45;97.59
69411;BME280;56604;48.652;9.194;2022-12-05T04:33:54;96177.69;;;1.49;97.61
69411;BME280;56604;48.652;9.194;2022-12-05T04:36:26;96180.84;;;1.45;97.48
69411;BME280;56604;48.652;9.194;2022-12-05T04:39:05;96179.63;;;1.41;96.92
69411;BME280;56604;48.652;9.194;2022-12-05T04:41:42;96175.06;;;1.43;96.82
69411;BME280;56604;48.652;9.194;2022-12-05T04:44:10;96177.22;;;1.32;97.00
69411;BME280;56604;48.652;9.194;2022-12-05T04:46:39;96183.38;;;1.31;97.20
69411;BME280;56604;48.652;9.194;2022-12-05T04:49:07;96188.72;;;1.23;97.83
69411;BME280;56604;48.652;9.194;2022-12-05T04:51:35;96179.16;;;1.24;97.87
69411;BME280;56604;48.652;9.194;2022-12-05T04:54:12;96178.78;;;1.27;97.93
69411;BME280;56604;48.652;9.194;2022-12-05T04:56:39;96181.56;;;1.25;97.91
69411;BME280;56604;48.652;9.194;2022-12-05T04:59:06;96182.94;;;1.21;97.44
69411;BME280;56604;48.652;9.194;2022-12-05T05:01:42;96194.06;;;1.15;97.76
69411;BME280;56604;48.652;9.194;2022-12-05T05:04:25;96201.59;;;1.10;97.96
69411;BME280;56604;48.652;9.194;2022-12-05T05:06:51;96201.34;;;1.05;98.47
69411;BME280;56604;48.652;9.194;2022-12-05T05:09:17;96203.34;;;1.03;98.73
69411;BME280;56604;48.652;9.194;2022-12-05T05:11:42;96204.75;;;1.05;98.65
69411;BME280;56604;48.652;9.194;2022-12-05T05:14:07;96210.75;;;1.12;98.77
69411;BME280;56604;48.652;9.194;2022-12-05T05:16:36;96224.59;;;1.26;98.99
69411;BME280;56604;48.652;9.194;2022-12-05T05:19:02;96227.41;;;1.31;98.44
69411;BME280;56604;48.652;9.194;2022-12-05T05:21:32;96225.88;;;1.44;98.67
69411;BME280;56604;48.652;9.194;2022-12-05T05:23:58;96223.75;;;1.54;98.53
69411;BME280;56604;48.652;9.194;2022-12-05T05:26:24;96218.91;;;1.44;98.49
69411;BME280;56604;48.652;9.194;2022-12-05T05:28:50;96221.53;;;1.51;98.85
69411;BME280;56604;48.652;9.194;2022-12-05T05:31:18;96217.56;;;1.55;98.71
69411;BME280;56604;48.652;9.194;2022-12-05T05:33:47;96220.75;;;1.57;98.05
69411;BME280;56604;48.652;9.194;2022-12-05T05:36:13;96233.50;;;1.58;98.33
69411;BME280;56604;48.652;9.194;2022-12-05T05:38:50;96238.75;;;1.65;98.06
69411;BME280;56604;48.652;9.194;2022-12-05T05:41:17;96236.97;;;1.72;98.20
69411;BME280;56604;48.652;9.194;2022-12-05T05:43:44;96232.81;;;1.85;98.26
69411;BME280;56604;48.652;9.194;2022-12-05T05:46:10;96225.72;;;2.00;97.77
69411;BME280;56604;48.652;9.194;2022-12-05T05:48:36;96217.72;;;1.95;97.26
69411;BME280;56604;48.652;9.194;2022-12-05T05:51:04;96219.47;;;1.88;96.94
69411;BME280;56604;48.652;9.194;2022-12-05T05:53:30;96226.06;;;1.90;97.02
69411;BME280;56604;48.652;9.194;2022-12-05T05:55:55;96221.31;;;2.00;97.07
69411;BME280;56604;48.652;9.194;2022-12-05T05:58:20;96223.28;;;1.98;96.76
69411;BME280;56604;48.652;9.194;2022-12-05T06:00:46;96232.06;;;1.91;97.27
69411;BME280;56604;48.652;9.194;2022-12-05T06:03:12;96236.41;;;1.84;97.27
69411;BME280;56604;48.652;9.194;2022-12-05T06:05:37;96237.03;;;1.86;96.82
69411;BME280;56604;48.652;9.194;2022-12-05T06:08:02;96235.41;;;1.85;97.12
69411;BME280;56604;48.652;9.194;2022-12-05T06:10:28;96246.16;;;1.82;97.16
69411;BME280;56604;48.652;9.194;2022-12-05T06:12:55;96251.34;;;1.82;97.25
69411;BME280;56604;48.652;9.194;2022-12-05T06:15:21;96251.97;;;1.84;97.44
69411;BME280;56604;48.652;9.194;2022-12-05T06:17:46;96249.38;;;1.90;97.15
69411;BME280;56604;48.652;9.194;2022-12-05T06:20:11;96254.78;;;1.89;97.26
69411;BME280;56604;48.652;9.194;2022-12-05T06:22:37;96255.19;;;1.92;97.21
69411;BME280;56604;48.652;9.194;2022-12-05T06:25:03;96269.25;;;1.76;97.26
69411;BME280;56604;48.652;9.194;2022-12-05T06:27:29;96263.88;;;1.71;97.30
69411;BME280;56604;48.652;9.194;2022-12-05T06:29:55;96273.47;;;1.77;97.89
69411;BME280;56604;48.652;9.194;2022-12-05T06:32:21;96277.91;;;1.90;97.74
69411;BME280;56604;48.652;9.194;2022-12-05T06:34:46;96283.53;;;1.94;97.58
69411;BME280;56604;48.652;9.194;2022-12-05T06:37:11;96280.72;;;1.95;97.17
69411;BME280;56604;48.652;9.194;2022-12-05T06:39:37;96274.75;;;1.95;96.78
69411;BME280;56604;48.652;9.194;2022-12-05T06:42:03;96284.31;;;2.01;96.64
69411;BME280;56604;48.652;9.194;2022-12-05T06:44:28;96271.38;;;2.08;96.65
69411;BME280;56604;48.652;9.194;2022-12-05T06:46:53;96272.78;;;2.10;96.69
69411;BME280;56604;48.652;9.194;2022-12-05T06:49:19;96279.38;;;2.13;96.23
69411;BME280;56604;48.652;9.194;2022-12-05T06:51:45;96273.41;;;2.12;95.94
69411;BME280;56604;48.652;9.194;2022-12-05T06:54:11;96269.22;;;2.11;95.90
69411;BME280;56604;48.652;9.194;2022-12-05T06:56:37;96264.25;;;2.16;96.30
69411;BME280;56604;48.652;9.194;2022-12-05T06:59:02;96276.22;;;2.17;95.80
69411;BME280;56604;48.652;9.194;2022-12-05T07:01:27;96284.97;;;2.10;95.78
69411;BME280;56604;48.652;9.194;2022-12-05T07:04:08;96301.91;;;2.06;96.09
69411;BME280;56604;48.652;9.194;2022-12-05T07:06:34;96312.69;;;2.09;96.08
69411;BME280;56604;48.652;9.194;2022-12-05T07:09:00;96307.50;;;2.09;96.30
69411;BME280;56604;48.652;9.194;2022-12-05T07:11:26;96313.09;;;2.13;96.28
69411;BME280;56604;48.652;9.194;2022-12-05T07:13:52;96317.31;;;2.20;96.26
69411;BME280;56604;48.652;9.194;2022-12-05T07:16:17;96315.16;;;2.31;96.16
69411;BME280;56604;48.652;9.194;2022-12-05T07:18:43;96320.59;;;2.42;95.80
69411;BME280;56604;48.652;9.194;2022-12-05T07:21:11;96323.59;;;2.46;95.19
69411;BME280;56604;48.652;9.194;2022-12-05T07:23:37;96324.41;;;2.60;94.94
69411;BME280;56604;48.652;9.194;2022-12-05T07:26:04;96324.38;;;2.53;94.50
69411;BME280;56604;48.652;9.194;2022-12-05T07:28:30;96328.16;;;2.44;94.53
69411;BME280;56604;48.652;9.194;2022-12-05T07:31:04;96333.19;;;2.52;94.88
69411;BME280;56604;48.652;9.194;2022-12-05T07:33:29;96320.59;;;2.49;94.85
69411;BME280;56604;48.652;9.194;2022-12-05T07:36:03;96313.44;;;2.64;94.96
69411;BME280;56604;48.652;9.194;2022-12-05T07:38:29;96315.66;;;2.81;94.17
69411;BME280;56604;48.652;9.194;2022-12-05T07:40:54;96322.47;;;2.88;93.39
69411;BME280;56604;48.652;9.194;2022-12-05T07:43:20;96326.50;;;3.11;93.34
69411;BME280;56604;48.652;9.194;2022-12-05T07:45:45;96325.28;;;3.00;93.14
69411;BME280;56604;48.652;9.194;2022-12-05T07:48:10;96322.69;;;3.13;92.22
69411;BME280;56604;48.652;9.194;2022-12-05T07:50:36;96326.47;;;2.98;92.44
69411;BME280;56604;48.652;9.194;2022-12-05T07:53:01;96331.25;;;3.07;92.72
69411;BME280;56604;48.652;9.194;2022-12-05T07:55:26;96331.66;;;2.91;93.01
69411;BME280;56604;48.652;9.194;2022-12-05T07:57:52;96325.09;;;3.08;92.73
69411;BME280;56604;48.652;9.194;2022-12-05T08:00:18;96332.25;;;2.93;92.60
69411;BME280;56604;48.652;9.194;2022-12-05T08:02:43;96327.69;;;3.02;92.43
69411;BME280;56604;48.652;9.194;2022-12-05T08:05:08;96338.84;;;2.96;92.75
69411;BME280;56604;48.652;9.194;2022-12-05T08:07:34;96340.84;;;3.00;92.44
69411;BME280;56604;48.652;9.194;2022-12-05T08:09:59;96342.63;;;2.93;92.70
69411;BME280;56604;48.652;9.194;2022-12-05T08:12:24;96345.66;;;2.97;92.45
69411;BME280;56604;48.652;9.194;2022-12-05T08:14:49;96350.06;;;3.16;92.10
69411;BME280;56604;48.652;9.194;2022-12-05T08:17:15;96357.44;;;2.99;92.24
69411;BME280;56604;48.652;9.194;2022-12-05T08:19:40;96353.66;;;3.08;92.32
69411;BME280;56604;48.652;9.194;2022-12-05T08:22:05;96354.63;;;3.07;92.12
69411;BME280;56604;48.652;9.194;2022-12-05T08:24:31;96356.44;;;3.07;92.67
69411;BME280;56604;48.652;9.194;2022-12-05T08:26:56;96360.66;;;3.08;92.36
69411;BME280;56604;48.652;9.194;2022-12-05T08:29:21;96363.22;;;3.01;92.43
69411;BME280;56604;48.652;9.194;2022-12-05T08:31:50;96364.81;;;2.89;92.78
69411;BME280;56604;48.652;9.194;2022-12-05T08:34:17;96374.38;;;2.82;93.03
69411;BME280;56604;48.652;9.194;2022-12-05T08:36:43;96369.78;;;2.84;92.98
69411;BME280;56604;48.652;9.194;2022-12-05T08:39:12;96376.00;;;2.96;93.78
69411;BME280;56604;48.652;9.194;2022-12-05T08:41:41;96376.00;;;3.03;92.86
69411;BME280;56604;48.652;9.194;2022-12-05T08:44:07;96363.84;;;3.30;92.41
69411;BME280;56604;48.652;9.194;2022-12-05T08:46:35;96346.47;;;3.37;91.35
69411;BME280;56604;48.652;9.194;2022-12-05T08:49:02;96349.44;;;3.60;90.56
69411;BME280;56604;48.652;9.194;2022-12-05T08:51:28;96358.25;;;3.59;89.11
69411;BME280;56604;48.652;9.194;2022-12-05T08:53:53;96363.03;;;3.63;89.42
69411;BME280;56604;48.652;9.194;2022-12-05T08:56:20;96362.00;;;3.90;88.95
69411;BME280;56604;48.652;9.194;2022-12-05T08:58:46;96364.41;;;3.85;89.13
69411;BME280;56604;48.652;9.194;2022-12-05T09:01:16;96368.78;;;3.91;89.37
69411;BME280;56604;48.652;9.194;2022-12-05T09:03:42;96381.94;;;4.10;87.59
69411;BME280;56604;48.652;9.194;2022-12-05T09:06:16;96385.53;;;4.22;87.47
69411;BME280;56604;48.652;9.194;2022-12-05T09:08:42;96379.06;;;4.38;87.35
69411;BME280;56604;48.652;9.194;2022-12-05T09:11:16;96379.03;;;4.44;86.57
69411;BME280;56604;48.652;9.194;2022-12-05T09:13:43;96385.84;;;4.45;86.02
69411;BME280;56604;48.652;9.194;2022-12-05T09:16:17;96386.53;;;4.72;85.37
69411;BME280;56604;48.652;9.194;2022-12-05T09:18:43;96376.59;;;4.56;84.32
69411;BME280;56604;48.652;9.194;2022-12-05T09:21:17;96380.09;;;4.75;85.38
69411;BME280;56604;48.652;9.194;2022-12-05T09:23:43;96387.00;;;4.56;84.71
69411;BME280;56604;48.652;9.194;2022-12-05T09:26:12;96398.47;;;4.35;85.17
69411;BME280;56604;48.652;9.194;2022-12-05T09:28:38;96404.19;;;4.64;84.84
69411;BME280;56604;48.652;9.194;2022-12-05T09:31:06;96406.22;;;4.62;84.29
69411;BME280;56604;48.652;9.194;2022-12-05T09:33:33;96411.41;;;4.62;84.87
69411;BME280;56604;48.652;9.194;2022-12-05T09:36:07;96422.72;;;4.29;84.50
69411;BME280;56604;48.652;9.194;2022-12-05T09:38:34;96423.22;;;4.58;84.45
69411;BME280;56604;48.652;9.194;2022-12-05T09:41:10;96419.47;;;4.47;84.85
69411;BME280;56604;48.652;9.194;2022-12-05T09:43:59;96424.25;;;4.57;84.55
69411;BME280;56604;48.652;9.194;2022-12-05T09:46:40;96426.63;;;4.65;83.86
69411;BME280;56604;48.652;9.194;2022-12-05T09:49:12;96426.25;;;4.55;83.63
69411;BME280;56604;48.652;9.194;2022-12-05T09:51:42;96424.66;;;4.54;85.60
69411;BME280;56604;48.652;9.194;2022-12-05T09:54:11;96420.59;;;4.71;83.67
69411;BME280;56604;48.652;9.194;2022-12-05T09:56:37;96423.78;;;4.73;84.15
69411;BME280;56604;48.652;9.194;2022-12-05T09:59:11;96425.31;;;4.87;83.61
69411;BME280;56604;48.652;9.194;2022-12-05T10:01:56;96426.59;;;4.71;83.45
69411;BME280;56604;48.652;9.194;2022-12-05T10:07:13;96420.44;;;4.97;82.75
69411;BME280;56604;48.652;9.194;2022-12-05T10:17:21;96406.63;;;5.29;81.63
69411;BME280;56604;48.652;9.194;2022-12-05T10:19:48;96404.91;;;5.48;80.85
69411;BME280;56604;48.652;9.194;2022-12-05T10:22:25;96400.38;;;5.86;80.13
69411;BME280;56604;48.652;9.194;2022-12-05T10:24:55;96397.38;;;5.83;80.28
69411;BME280;56604;48.652;9.194;2022-12-05T10:27:35;96403.59;;;5.63;79.78
69411;BME280;56604;48.652;9.194;2022-12-05T10:30:24;96393.09;;;5.70;80.17
69411;BME280;56604;48.652;9.194;2022-12-05T10:32:52;96394.88;;;5.95;79.74
69411;BME280;56604;48.652;9.194;2022-12-05T10:35:29;96389.72;;;5.88;78.78
69411;BME280;56604;48.652;9.194;2022-12-05T10:37:59;96396.31;;;5.66;79.56
69411;BME280;56604;48.652;9.194;2022-12-05T10:40:32;96391.91;;;5.66;79.74
69411;BME280;56604;48.652;9.194;2022-12-05T10:42:58;96393.53;;;5.67;79.82
69411;BME280;56604;48.652;9.194;2022-12-05T10:45:24;96396.59;;;5.82;80.38
69411;BME280;56604;48.652;9.194;2022-12-05T10:47:53;96399.84;;;5.78;80.60
69411;BME280;56604;48.652;9.194;2022-12-05T10:50:27;96398.56;;;5.87;80.59
69411;BME280;56604;48.652;9.194;2022-12-05T10:52:55;96395.72;;;5.89;79.70
69411;BME280;56604;48.652;9.194;2022-12-05T10:55:30;96398.13;;;5.90;81.05
69411;BME280;56604;48.652;9.194;2022-12-05T10:58:29;96402.66;;;6.01;79.31
69411;BME280;56604;48.652;9.194;2022-12-05T11:01:06;96395.03;;;6.00;78.95
69411;BME280;56604;48.652;9.194;2022-12-05T11:03:38;96393.66;;;5.97;78.35
69411;BME280;56604;48.652;9.194;2022-12-05T11:06:16;96402.88;;;6.00;78.43
69411;BME280;56604;48.652;9.194;2022-12-05T11:08:51;96405.72;;;5.98;78.71
69411;BME280;56604;48.652;9.194;2022-12-05T11:11:20;96396.09;;;5.92;78.23
69411;BME280;56604;48.652;9.194;2022-12-05T11:14:02;96388.06;;;5.94;78.10
69411;BME280;56604;48.652;9.194;2022-12-05T11:16:29;96382.44;;;6.34;76.99
69411;BME280;56604;48.652;9.194;2022-12-05T11:18:55;96389.56;;;6.45;76.05
69411;BME280;56604;48.652;9.194;2022-12-05T11:21:21;96394.03;;;6.56;75.69
69411;BME280;56604;48.652;9.194;2022-12-05T11:23:47;96394.13;;;6.98;74.93
69411;BME280;56604;48.652;9.194;2022-12-05T11:26:31;96392.06;;;7.00;73.55
69411;BME280;56604;48.652;9.194;2022-12-05T11:28:59;96385.69;;;7.26;72.85
69411;BME280;56604;48.652;9.194;2022-12-05T11:31:27;96382.06;;;7.39;72.41
69411;BME280;56604;48.652;9.194;2022-12-05T11:34:19;96383.38;;;7.18;71.70
69411;BME280;56604;48.652;9.194;2022-12-05T11:36:50;96384.31;;;7.24;73.37
69411;BME280;56604;48.652;9.194;2022-12-05T11:39:18;96386.81;;;7.30;72.39
69411;BME280;56604;48.652;9.194;2022-12-05T12:03:48;96389.91;;;6.67;75.02
69411;BME280;56604;48.652;9.194;2022-12-05T12:11:58;96382.81;;;6.86;74.20
69411;BME280;56604;48.652;9.194;2022-12-05T12:14:38;96377.88;;;7.08;73.58
69411;BME280;56604;48.652;9.194;2022-12-05T12:17:48;96379.50;;;7.09;72.25
69411;BME280;56604;48.652;9.194;2022-12-05T12:20:19;96369.16;;;7.26;72.60
69411;BME280;56604;48.652;9.194;2022-12-05T12:23:07;96370.44;;;7.23;72.76
69411;BME280;56604;48.652;9.194;2022-12-05T12:25:44;96367.84;;;7.35;71.41
69411;BME280;56604;48.652;9.194;2022-12-05T12:28:32;96370.06;;;7.19;71.93
69411;BME280;56604;48.652;9.194;2022-12-05T12:31:24;96376.00;;;7.27;70.97
69411;BME280;56604;48.652;9.194;2022-12-05T12:36:54;96386.28;;;6.98;70.46
69411;BME280;56604;48.652;9.194;2022-12-05T12:39:49;96391.66;;;7.03;70.91
69411;BME280;56604;48.652;9.194;2022-12-05T12:42:27;96390.47;;;6.99;69.90
69411;BME280;56604;48.652;9.194;2022-12-05T12:50:22;96386.75;;;6.76;71.49
69411;BME280;56604;48.652;9.194;2022-12-05T13:01:42;96378.75;;;6.41;71.12
69411;BME280;56604;48.652;9.194;2022-12-05T13:04:14;96380.56;;;6.41;71.43
69411;BME280;56604;48.652;9.194;2022-12-05T13:06:51;96385.06;;;6.52;70.90
69411;BME280;56604;48.652;9.194;2022-12-05T13:09:51;96379.41;;;6.37;70.02
69411;BME280;56604;48.652;9.194;2022-12-05T13:12:24;96379.25;;;6.31;70.12
69411;BME280;56604;48.652;9.194;2022-12-05T13:15:00;96374.31;;;6.42;70.98
69411;BME280;56604;48.652;9.194;2022-12-05T13:17:30;96377.97;;;6.41;71.32
69411;BME280;56604;48.652;9.194;2022-12-05T13:19:57;96378.47;;;6.49;70.44
69411;BME280;56604;48.652;9.194;2022-12-05T13:22:23;96374.63;;;6.52;69.45
69411;BME280;56604;48.652;9.194;2022-12-05T13:24:51;96369.16;;;6.53;69.90
69411;BME280;56604;48.652;9.194;2022-12-05T13:27:19;96368.94;;;6.37;69.78
69411;BME280;56604;48.652;9.194;2022-12-05T13:29:58;96362.13;;;6.54;70.11
69411;BME280;56604;48.652;9.194;2022-12-05T13:32:39;96362.56;;;6.51;69.96
69411;BME280;56604;48.652;9.194;2022-12-05T13:35:21;96364.03;;;6.47;69.95
69411;BME280;56604;48.652;9.194;2022-12-05T13:38:21;96372.44;;;6.30;69.33
69411;BME280;56604;48.652;9.194;2022-12-05T13:41:06;96369.84;;;6.49;70.50
69411;BME280;56604;48.652;9.194;2022-12-05T13:43:52;96382.31;;;6.47;72.53
69411;BME280;56604;48.652;9.194;2022-12-05T13:46:23;96385.25;;;6.50;70.95
69411;BME280;56604;48.652;9.194;2022-12-05T13:48:58;96378.31;;;6.44;70.18
69411;BME280;56604;48.652;9.194;2022-12-05T13:51:37;96379.09;;;6.45;70.57
69411;BME280;56604;48.652;9.194;2022-12-05T13:56:53;96393.47;;;6.36;70.49
69411;BME280;56604;48.652;9.194;2022-12-05T14:07:43;96400.72;;;6.15;70.60
69411;BME280;56604;48.652;9.194;2022-12-05T14:10:13;96393.91;;;6.14;70.60
69411;BME280;56604;48.652;9.194;2022-12-05T14:12:50;96403.91;;;6.17;70.93
69411;BME280;56604;48.652;9.194;2022-12-05T14:15:34;96403.25;;;6.22;70.97
69411;BME280;56604;48.652;9.194;2022-12-05T14:24:00;96397.53;;;6.13;71.38
69411;BME280;56604;48.652;9.194;2022-12-05T14:34:36;96407.72;;;5.71;71.72
69411;BME280;56604;48.652;9.194;2022-12-05T14:37:07;96415.97;;;5.68;71.49
69411;BME280;56604;48.652;9.194;2022-12-05T14:39:48;96412.72;;;5.73;71.72
69411;BME280;56604;48.652;9.194;2022-12-05T14:42:40;96407.72;;;5.71;70.97
69411;BME280;56604;48.652;9.194;2022-12-05T14:45:31;96408.47;;;5.53;71.70
69411;BME280;56604;48.652;9.194;2022-12-05T14:48:41;96409.69;;;5.51;72.16
69411;BME280;56604;48.652;9.194;2022-12-05T14:50:49;96404.72;;;5.43;71.33
69411;BME280;56604;48.652;9.194;2022-12-05T14:56:04;96409.53;;;5.46;71.79
69411;BME280;56604;48.652;9.194;2022-12-05T14:59:02;96402.19;;;5.36;72.44
69411;BME280;56604;48.652;9.194;2022-12-05T15:07:08;96404.50;;;5.19;72.65
69411;BME280;56604;48.652;9.194;2022-12-05T15:09:48;96400.31;;;5.18;72.28
69411;BME280;56604;48.652;9.194;2022-12-05T15:12:24;96408.38;;;5.03;72.83
69411;BME280;56604;48.652;9.194;2022-12-05T15:17:59;96419.31;;;4.87;73.38
69411;BME280;56604;48.652;9.194;2022-12-05T15:20:36;96414.91;;;4.81;73.70
69411;BME280;56604;48.652;9.194;2022-12-05T15:23:37;96420.59;;;4.71;75.17
69411;BME280;56604;48.652;9.194;2022-12-05T15:26:05;96414.59;;;4.64;74.60
69411;BME280;56604;48.652;9.194;2022-12-05T15:28:39;96421.03;;;4.55;75.33
69411;BME280;56604;48.652;9.194;2022-12-05T15:31:05;96421.47;;;4.45;76.38
69411;BME280;56604;48.652;9.194;2022-12-05T15:33:32;96423.13;;;4.33;77.26
69411;BME280;56604;48.652;9.194;2022-12-05T15:35:58;96417.53;;;4.29;76.72
69411;BME280;56604;48.652;9.194;2022-12-05T15:38:28;96418.31;;;4.29;77.18
69411;BME280;56604;48.652;9.194;2022-12-05T15:40:54;96425.75;;;4.19;77.29
69411;BME280;56604;48.652;9.194;2022-12-05T15:43:32;96431.34;;;4.23;77.02